createdAt,value
2018-04-08T00:00:04.780Z,73.32
2018-04-08T00:01:04.776Z,73.89
2018-04-08T00:02:04.777Z,74.18
2018-04-08T00:03:04.773Z,74.27
2018-04-08T00:04:04.774Z,74.46
2018-04-08T00:05:04.775Z,74.65
2018-04-08T00:06:04.778Z,75.04
2018-04-08T00:07:04.770Z,74.84
2018-04-08T00:08:04.771Z,75.23
2018-04-08T00:09:04.773Z,74.46
2018-04-08T00:10:04.774Z,74.12
2018-04-08T00:11:04.779Z,74.12
2018-04-08T00:12:04.769Z,74.02
2018-04-08T00:13:04.770Z,73.45
2018-04-08T00:14:04.765Z,73.36
2018-04-08T00:15:04.769Z,73.36
2018-04-08T00:16:04.768Z,73.55
2018-04-08T00:17:04.766Z,73.17
2018-04-08T00:18:04.762Z,73.07
2018-04-08T00:19:04.762Z,72.78
2018-04-08T00:20:04.760Z,72.88
2018-04-08T00:21:04.765Z,72.69
2018-04-08T00:22:04.759Z,72.88
2018-04-08T00:23:04.892Z,73.17
2018-04-08T00:24:04.758Z,73.55
2018-04-08T00:25:04.758Z,74.08
2018-04-08T00:26:04.753Z,73.83
2018-04-08T00:27:04.754Z,73.99
2018-04-08T00:28:04.753Z,74.18
2018-04-08T00:29:04.764Z,74.84
2018-04-08T00:30:04.752Z,75.13
2018-04-08T00:31:04.753Z,75.13
2018-04-08T00:32:04.749Z,75.42
2018-04-08T00:33:04.757Z,75.51
2018-04-08T00:34:04.748Z,75.42
2018-04-08T00:35:04.749Z,75.89
2018-04-08T00:36:04.746Z,75.99
2018-04-08T00:37:04.746Z,76.37
2018-04-08T00:38:04.744Z,77.19
2018-04-08T00:39:04.743Z,77.13
2018-04-08T00:40:04.747Z,77.09
2018-04-08T00:41:04.740Z,76.84
2018-04-08T00:42:04.740Z,76.84
2018-04-08T00:43:04.740Z,76.94
2018-04-08T00:44:04.737Z,76.84
2018-04-08T00:45:04.740Z,76.84
2018-04-08T00:46:04.737Z,76.65
2018-04-08T00:47:04.740Z,76.94
2018-04-08T00:48:04.734Z,77.03
2018-04-08T00:49:04.734Z,76.65
2018-04-08T00:50:04.736Z,76.81
2018-04-08T00:51:04.732Z,76.81
2018-04-08T00:52:04.730Z,77.09
2018-04-08T00:53:04.731Z,77.28
2018-04-08T00:54:04.729Z,77.28
2018-04-08T00:55:04.728Z,77.56
2018-04-08T00:56:04.730Z,77.66
2018-04-08T00:57:04.728Z,77.19
2018-04-08T00:58:04.726Z,77.09
2018-04-08T00:59:04.725Z,78.23
2018-04-08T01:00:04.728Z,78.71
2018-04-08T01:01:04.724Z,77.95
2018-04-08T01:02:04.720Z,78.42
2018-04-08T01:03:04.721Z,78.23
2018-04-08T01:04:04.719Z,77.37
2018-04-08T01:05:04.718Z,78.48
2018-04-08T01:06:04.716Z,78.77
2018-04-08T01:07:04.714Z,79.33
2018-04-08T01:08:04.714Z,78.96
2018-04-08T01:09:04.717Z,79.33
2018-04-08T01:10:04.711Z,79.33
2018-04-08T01:11:04.711Z,79.52
2018-04-08T01:12:04.708Z,79.62
2018-04-08T01:13:04.725Z,80.19
2018-04-08T01:14:04.709Z,79.81
2018-04-08T01:15:04.708Z,79.81
2018-04-08T01:16:04.706Z,79.62
2018-04-08T01:17:04.708Z,80.00
2018-04-08T01:18:04.700Z,80.47
2018-04-08T01:19:04.698Z,80.66
2018-04-08T01:20:04.698Z,80.47
2018-04-08T01:21:04.698Z,80.44
2018-04-08T01:22:04.696Z,80.24
2018-04-08T01:23:04.693Z,80.24
2018-04-08T01:24:04.692Z,80.44
2018-04-08T01:25:04.691Z,81.10
2018-04-08T01:26:04.689Z,81.01
2018-04-08T01:27:04.687Z,81.01
2018-04-08T01:28:04.691Z,80.82
2018-04-08T01:29:04.684Z,80.76
2018-04-08T01:30:04.685Z,80.66
2018-04-08T01:31:04.682Z,81.05
2018-04-08T01:32:04.679Z,80.95
2018-04-08T01:33:04.679Z,80.66
2018-04-08T01:34:04.676Z,80.86
2018-04-08T01:35:04.676Z,80.38
2018-04-08T01:36:04.672Z,80.57
2018-04-08T01:37:04.672Z,80.47
2018-04-08T01:38:04.671Z,80.47
2018-04-08T01:39:04.668Z,80.66
2018-04-08T01:40:04.666Z,79.72
2018-04-08T01:41:04.671Z,79.62
2018-04-08T01:42:04.667Z,79.57
2018-04-08T01:43:04.663Z,79.75
2018-04-08T01:44:04.664Z,79.38
2018-04-08T01:45:04.657Z,79.75
2018-04-08T01:46:04.658Z,79.38
2018-04-08T01:47:04.653Z,78.52
2018-04-08T01:48:04.654Z,78.61
2018-04-08T01:49:04.653Z,78.42
2018-04-08T01:50:04.651Z,78.17
2018-04-08T01:51:04.654Z,77.47
2018-04-08T01:52:04.651Z,77.51
2018-04-08T01:53:04.649Z,77.51
2018-04-08T01:54:04.646Z,77.13
2018-04-08T01:55:04.644Z,75.30
2018-04-08T01:56:04.644Z,72.63
2018-04-08T01:57:04.641Z,72.16
2018-04-08T01:58:04.639Z,72.06
2018-04-08T01:59:04.639Z,72.25
2018-04-08T02:00:04.635Z,72.63
2018-04-08T02:01:04.635Z,72.78
2018-04-08T02:02:04.637Z,73.36
2018-04-08T02:03:04.634Z,74.08
2018-04-08T02:04:04.638Z,75.13
2018-04-08T02:05:04.630Z,75.89
2018-04-08T02:06:04.628Z,75.99
2018-04-08T02:07:04.629Z,76.65
2018-04-08T02:08:04.625Z,76.65
2018-04-08T02:09:04.628Z,77.28
2018-04-08T02:10:04.624Z,78.23
2018-04-08T02:11:04.625Z,78.04
2018-04-08T02:12:04.622Z,78.17
2018-04-08T02:13:04.620Z,77.42
2018-04-08T02:14:04.617Z,77.51
2018-04-08T02:15:04.619Z,77.03
2018-04-08T02:16:04.616Z,76.31
2018-04-08T02:17:04.615Z,76.21
2018-04-08T02:18:04.613Z,75.26
2018-04-08T02:19:04.619Z,75.26
2018-04-08T02:20:04.613Z,75.26
2018-04-08T02:21:04.633Z,75.07
2018-04-08T02:22:04.609Z,74.50
2018-04-08T02:23:04.609Z,74.50
2018-04-08T02:24:04.607Z,74.40
2018-04-08T02:25:04.605Z,74.12
2018-04-08T02:26:04.606Z,74.60
2018-04-08T02:27:04.604Z,74.79
2018-04-08T02:28:04.602Z,74.88
2018-04-08T02:29:04.601Z,74.12
2018-04-08T02:30:04.601Z,74.06
2018-04-08T02:31:04.599Z,73.68
2018-04-08T02:32:04.599Z,73.01
2018-04-08T02:33:04.599Z,72.92
2018-04-08T02:34:04.595Z,72.63
2018-04-08T02:35:04.596Z,72.44
2018-04-08T02:36:04.599Z,72.92
2018-04-08T02:37:04.597Z,73.26
2018-04-08T02:38:04.588Z,73.74
2018-04-08T02:39:04.592Z,73.65
2018-04-08T02:40:04.591Z,74.12
2018-04-08T02:41:04.590Z,74.02
2018-04-08T02:42:04.590Z,74.46
2018-04-08T02:43:04.587Z,75.36
2018-04-08T02:44:04.589Z,76.21
2018-04-08T02:45:04.591Z,75.55
2018-04-08T02:46:04.584Z,74.98
2018-04-08T02:47:04.584Z,75.26
2018-04-08T02:48:04.585Z,75.36
2018-04-08T02:49:04.582Z,74.21
2018-04-08T02:50:04.587Z,74.40
2018-04-08T02:51:04.579Z,74.21
2018-04-08T02:52:04.580Z,73.93
2018-04-08T02:53:04.580Z,73.45
2018-04-08T02:54:04.577Z,73.39
2018-04-08T02:55:04.578Z,73.39
2018-04-08T02:56:04.579Z,73.07
2018-04-08T02:57:04.576Z,73.77
2018-04-08T02:58:04.573Z,73.49
2018-04-08T02:59:04.571Z,73.77
2018-04-08T03:00:04.574Z,73.55
2018-04-08T03:01:04.572Z,73.68
2018-04-08T03:02:04.570Z,73.45
2018-04-08T03:03:04.569Z,73.36
2018-04-08T03:04:04.569Z,74.12
2018-04-08T03:05:04.566Z,74.40
2018-04-08T03:06:04.564Z,74.40
2018-04-08T03:07:04.570Z,75.26
2018-04-08T03:08:04.564Z,75.45
2018-04-08T03:09:04.564Z,76.40
2018-04-08T03:10:04.574Z,75.93
2018-04-08T03:11:04.561Z,76.37
2018-04-08T03:12:04.562Z,76.08
2018-04-08T03:13:04.561Z,76.56
2018-04-08T03:14:04.560Z,76.65
2018-04-08T03:15:04.559Z,76.65
2018-04-08T03:16:04.557Z,77.13
2018-04-08T03:17:04.556Z,76.21
2018-04-08T03:18:04.555Z,76.12
2018-04-08T03:19:04.554Z,75.45
2018-04-08T03:20:04.553Z,75.84
2018-04-08T03:21:04.550Z,75.13
2018-04-08T03:22:04.558Z,75.64
2018-04-08T03:23:04.550Z,74.88
2018-04-08T03:24:04.552Z,76.21
2018-04-08T03:25:04.548Z,76.37
2018-04-08T03:26:04.554Z,76.18
2018-04-08T03:27:04.549Z,76.56
2018-04-08T03:28:04.544Z,76.84
2018-04-08T03:29:04.546Z,76.84
2018-04-08T03:30:04.544Z,76.94
2018-04-08T03:31:04.545Z,77.22
2018-04-08T03:32:04.541Z,77.13
2018-04-08T03:33:04.542Z,77.22
2018-04-08T03:34:04.539Z,77.61
2018-04-08T03:35:04.535Z,77.32
2018-04-08T03:36:04.542Z,77.03
2018-04-08T03:37:04.536Z,77.13
2018-04-08T03:38:04.534Z,77.42
2018-04-08T03:39:04.534Z,77.70
2018-04-08T03:40:04.532Z,77.98
2018-04-08T03:41:04.533Z,78.37
2018-04-08T03:42:04.530Z,77.98
2018-04-08T03:43:04.530Z,77.70
2018-04-08T03:44:04.528Z,78.65
2018-04-08T03:45:04.531Z,78.85
2018-04-08T03:46:04.528Z,78.46
2018-04-08T03:47:04.524Z,78.14
2018-04-08T03:48:04.526Z,77.98
2018-04-08T03:49:04.525Z,78.52
2018-04-08T03:50:04.521Z,78.52
2018-04-08T03:51:04.520Z,79.09
2018-04-08T03:52:04.519Z,79.19
2018-04-08T03:53:04.519Z,78.61
2018-04-08T03:54:04.517Z,78.90
2018-04-08T03:55:04.521Z,78.80
2018-04-08T03:56:04.515Z,78.42
2018-04-08T03:57:04.517Z,78.61
2018-04-08T03:58:04.511Z,79.66
2018-04-08T03:59:04.510Z,79.94
2018-04-08T04:00:04.510Z,79.75
2018-04-08T04:01:04.509Z,79.85
2018-04-08T04:02:04.511Z,79.47
2018-04-08T04:03:04.513Z,78.99
2018-04-08T04:04:04.509Z,79.28
2018-04-08T04:05:04.505Z,78.99
2018-04-08T04:06:04.504Z,79.47
2018-04-08T04:07:04.502Z,79.66
2018-04-08T04:08:04.501Z,80.04
2018-04-08T04:09:04.499Z,79.85
2018-04-08T04:10:04.497Z,79.28
2018-04-08T04:11:04.498Z,79.38
2018-04-08T04:12:04.496Z,79.57
2018-04-08T04:13:04.495Z,79.19
2018-04-08T04:14:04.491Z,79.38
2018-04-08T04:15:04.494Z,79.38
2018-04-08T04:16:04.490Z,79.47
2018-04-08T04:17:04.495Z,79.32
2018-04-08T04:18:04.489Z,78.56
2018-04-08T04:19:04.486Z,78.56
2018-04-08T04:20:04.486Z,78.17
2018-04-08T04:21:04.484Z,77.80
2018-04-08T04:22:04.487Z,77.42
2018-04-08T04:23:04.482Z,77.80
2018-04-08T04:24:04.482Z,77.70
2018-04-08T04:25:04.481Z,77.80
2018-04-08T04:26:04.476Z,77.51
2018-04-08T04:27:04.481Z,77.89
2018-04-08T04:28:04.475Z,77.80
2018-04-08T04:29:04.473Z,78.17
2018-04-08T04:30:04.470Z,78.94
2018-04-08T04:31:04.471Z,78.56
2018-04-08T04:32:04.469Z,78.65
2018-04-08T04:33:04.468Z,78.52
2018-04-08T04:34:04.467Z,78.99
2018-04-08T04:35:04.467Z,78.42
2018-04-08T04:36:04.466Z,79.09
2018-04-08T04:37:04.462Z,79.85
2018-04-08T04:38:04.461Z,79.66
2018-04-08T04:39:04.459Z,80.00
2018-04-08T04:40:04.460Z,80.38
2018-04-08T04:41:04.456Z,81.71
2018-04-08T04:42:04.458Z,82.48
2018-04-08T04:43:04.456Z,81.71
2018-04-08T04:44:04.453Z,82.00
2018-04-08T04:45:04.456Z,82.28
2018-04-08T04:46:04.451Z,82.57
2018-04-08T04:47:04.447Z,81.71
2018-04-08T04:48:04.446Z,82.09
2018-04-08T04:49:04.448Z,81.71
2018-04-08T04:50:04.445Z,80.47
2018-04-08T04:51:04.442Z,80.19
2018-04-08T04:52:04.443Z,80.00
2018-04-08T04:53:04.440Z,80.38
2018-04-08T04:54:04.437Z,81.05
2018-04-08T04:55:04.437Z,81.38
2018-04-08T04:56:04.437Z,82.24
2018-04-08T04:57:04.437Z,82.81
2018-04-08T04:58:04.438Z,83.00
2018-04-08T04:59:04.431Z,83.86
2018-04-08T05:00:04.429Z,83.95
2018-04-08T05:01:04.433Z,84.24
2018-04-08T05:02:04.426Z,84.33
2018-04-08T05:03:04.425Z,83.58
2018-04-08T05:04:04.430Z,83.58
2018-04-08T05:05:04.421Z,83.10
2018-04-08T05:06:04.426Z,83.39
2018-04-08T05:07:04.417Z,83.10
2018-04-08T05:08:04.415Z,83.19
2018-04-08T05:09:04.414Z,83.29
2018-04-08T05:10:04.411Z,83.10
2018-04-08T05:11:04.408Z,83.76
2018-04-08T05:12:04.409Z,84.52
2018-04-08T05:13:04.406Z,84.62
2018-04-08T05:14:04.402Z,85.57
2018-04-08T05:15:04.408Z,85.38
2018-04-08T05:16:04.401Z,85.47
2018-04-08T05:17:04.400Z,85.66
2018-04-08T05:18:04.398Z,86.05
2018-04-08T05:19:04.402Z,86.24
2018-04-08T05:20:04.394Z,86.24
2018-04-08T05:21:04.392Z,86.61
2018-04-08T05:22:04.388Z,86.43
2018-04-08T05:23:04.427Z,86.05
2018-04-08T05:24:04.384Z,86.14
2018-04-08T05:25:04.386Z,86.05
2018-04-08T05:26:04.382Z,86.33
2018-04-08T05:27:04.381Z,85.57
2018-04-08T05:28:04.382Z,85.47
2018-04-08T05:29:04.377Z,85.76
2018-04-08T05:30:04.373Z,86.05
2018-04-08T05:31:04.380Z,86.61
2018-04-08T05:32:04.372Z,86.14
2018-04-08T05:33:04.369Z,86.52
2018-04-08T05:34:04.367Z,86.80
2018-04-08T05:35:04.364Z,87.19
2018-04-08T05:36:04.363Z,86.90
2018-04-08T05:37:04.364Z,88.04
2018-04-08T05:38:04.359Z,87.28
2018-04-08T05:39:04.357Z,87.57
2018-04-08T05:40:04.356Z,87.38
2018-04-08T05:41:04.388Z,87.66
2018-04-08T05:42:04.350Z,87.38
2018-04-08T05:43:04.348Z,87.28
2018-04-08T05:44:04.350Z,86.90
2018-04-08T05:45:04.348Z,86.80
2018-04-08T05:46:04.344Z,86.80
2018-04-08T05:47:04.344Z,86.80
2018-04-08T05:48:04.341Z,87.09
2018-04-08T05:49:04.339Z,86.05
2018-04-08T05:50:04.336Z,85.52
2018-04-08T05:51:04.336Z,85.24
2018-04-08T05:52:04.337Z,85.24
2018-04-08T05:53:04.331Z,84.09
2018-04-08T05:54:04.330Z,83.81
2018-04-08T05:55:04.327Z,84.09
2018-04-08T05:56:04.333Z,84.19
2018-04-08T05:57:04.329Z,84.13
2018-04-08T05:58:04.367Z,84.13
2018-04-08T05:59:04.322Z,84.33
2018-04-08T06:00:04.326Z,84.13
2018-04-08T06:01:04.326Z,84.42
2018-04-08T06:02:04.319Z,84.04
2018-04-08T06:03:04.318Z,84.89
2018-04-08T06:04:04.313Z,85.08
2018-04-08T06:05:04.313Z,84.99
2018-04-08T06:06:04.313Z,84.42
2018-04-08T06:07:04.312Z,85.18
2018-04-08T06:08:04.309Z,85.37
2018-04-08T06:09:04.311Z,85.75
2018-04-08T06:10:04.407Z,85.85
2018-04-08T06:11:04.305Z,85.28
2018-04-08T06:12:04.306Z,85.47
2018-04-08T06:13:04.302Z,85.60
2018-04-08T06:14:04.302Z,84.65
2018-04-08T06:15:04.301Z,84.08
2018-04-08T06:16:04.298Z,83.61
2018-04-08T06:17:04.301Z,82.08
2018-04-08T06:18:04.294Z,81.41
2018-04-08T06:19:04.294Z,80.98
2018-04-08T06:20:04.293Z,81.74
2018-04-08T06:21:04.293Z,80.79
2018-04-08T06:22:04.298Z,80.50
2018-04-08T06:23:04.294Z,79.59
2018-04-08T06:24:04.290Z,79.02
2018-04-08T06:25:04.290Z,78.44
2018-04-08T06:26:04.286Z,78.44
2018-04-08T06:27:04.285Z,78.73
2018-04-08T06:28:04.312Z,78.10
2018-04-08T06:29:04.284Z,77.19
2018-04-08T06:30:04.282Z,74.30
2018-04-08T06:31:04.283Z,70.56
2018-04-08T06:32:04.281Z,66.83
2018-04-08T06:33:04.281Z,63.22
2018-04-08T06:34:04.282Z,60.50
2018-04-08T06:35:04.290Z,58.94
2018-04-08T06:36:04.280Z,56.82
2018-04-08T06:37:04.281Z,55.60
2018-04-08T06:38:04.281Z,55.05
2018-04-08T06:39:04.280Z,54.60
2018-04-08T06:40:04.283Z,53.47
2018-04-08T06:41:04.280Z,51.29
2018-04-08T06:42:04.286Z,50.42
2018-04-08T06:43:04.285Z,50.40
2018-04-08T06:44:04.288Z,50.20
2018-04-08T06:45:04.288Z,50.13
2018-04-08T06:46:04.293Z,49.65
2018-04-08T06:47:04.293Z,50.40
2018-04-08T06:48:04.298Z,48.93
2018-04-08T06:49:04.300Z,48.95
2018-04-08T06:50:04.306Z,47.17
2018-04-08T06:51:04.310Z,46.71
2018-04-08T06:52:04.312Z,45.75
2018-04-08T06:53:04.318Z,45.48
2018-04-08T06:54:04.321Z,44.71
2018-04-08T06:55:04.327Z,43.87
2018-04-08T06:56:04.331Z,42.05
2018-04-08T06:57:04.337Z,41.11
2018-04-08T06:58:04.343Z,41.13
2018-04-08T06:59:04.348Z,40.45
2018-04-08T07:00:04.356Z,40.07
2018-04-08T07:01:04.366Z,40.05
2018-04-08T07:02:04.368Z,41.13
2018-04-08T07:03:04.375Z,40.07
2018-04-08T07:04:04.384Z,39.20
2018-04-08T07:05:04.393Z,39.69
2018-04-08T07:06:04.396Z,39.39
2018-04-08T07:07:04.400Z,39.11
2018-04-08T07:08:04.409Z,38.53
2018-04-08T07:09:04.415Z,39.12
2018-04-08T07:10:04.423Z,37.50
2018-04-08T07:11:04.429Z,36.53
2018-04-08T07:12:04.452Z,36.63
2018-04-08T07:13:04.447Z,36.61
2018-04-08T07:14:04.457Z,36.55
2018-04-08T07:15:04.463Z,35.08
2018-04-08T07:16:04.473Z,36.03
2018-04-08T07:17:04.485Z,36.13
2018-04-08T07:18:04.491Z,36.63
2018-04-08T07:19:04.497Z,36.84
2018-04-08T07:20:04.506Z,36.18
2018-04-08T07:21:04.517Z,34.47
2018-04-08T07:22:04.521Z,33.41
2018-04-08T07:23:04.557Z,32.46
2018-04-08T07:24:04.543Z,32.07
2018-04-08T07:25:04.555Z,32.73
2018-04-08T07:26:04.565Z,32.92
2018-04-08T07:27:04.574Z,32.26
2018-04-08T07:28:04.581Z,32.46
2018-04-08T07:29:04.592Z,32.65
2018-04-08T07:30:04.602Z,32.15
2018-04-08T07:31:04.610Z,32.24
2018-04-08T07:32:04.619Z,32.14
2018-04-08T07:33:04.660Z,32.71
2018-04-08T07:34:04.639Z,32.91
2018-04-08T07:35:04.653Z,32.14
2018-04-08T07:36:04.662Z,32.82
2018-04-08T07:37:04.671Z,32.06
2018-04-08T07:38:04.686Z,31.86
2018-04-08T07:39:04.694Z,32.44
2018-04-08T07:40:04.703Z,32.24
2018-04-08T07:41:04.716Z,32.34
2018-04-08T07:42:04.725Z,32.36
2018-04-08T07:43:04.750Z,31.57
2018-04-08T07:44:04.748Z,30.98
2018-04-08T07:45:04.808Z,32.06
2018-04-08T07:46:04.772Z,32.33
2018-04-08T07:47:04.823Z,32.82
2018-04-08T07:48:04.798Z,32.15
2018-04-08T07:49:04.809Z,31.76
2018-04-08T07:50:04.817Z,31.67
2018-04-08T07:51:04.829Z,32.42
2018-04-08T07:52:04.841Z,32.21
2018-04-08T07:53:04.852Z,33.57
2018-04-08T07:54:04.865Z,33.94
2018-04-08T07:55:04.878Z,34.70
2018-04-08T07:56:04.890Z,34.20
2018-04-08T07:57:04.903Z,35.64
2018-04-08T07:58:04.921Z,35.82
2018-04-08T07:59:04.953Z,36.00
2018-04-08T08:00:04.941Z,36.55
2018-04-08T08:01:04.954Z,37.41
2018-04-08T08:02:04.966Z,37.79
2018-04-08T08:03:04.977Z,38.28
2018-04-08T08:04:04.995Z,38.35
2018-04-08T08:05:05.003Z,38.35
2018-04-08T08:06:05.015Z,38.83
2018-04-08T08:07:05.031Z,39.03
2018-04-08T08:08:05.042Z,39.31
2018-04-08T08:09:05.056Z,39.41
2018-04-08T08:10:05.070Z,38.54
2018-04-08T08:11:05.081Z,38.53
2018-04-08T08:12:05.095Z,38.06
2018-04-08T08:13:05.110Z,38.83
2018-04-08T08:14:05.141Z,39.51
2018-04-08T08:15:05.135Z,38.83
2018-04-08T08:16:05.146Z,38.45
2018-04-08T08:17:05.160Z,38.64
2018-04-08T08:18:05.173Z,39.14
2018-04-08T08:19:05.186Z,39.04
2018-04-08T08:20:05.199Z,38.56
2018-04-08T08:21:05.212Z,38.08
2018-04-08T08:22:05.223Z,37.79
2018-04-08T08:23:05.284Z,37.12
2018-04-08T08:24:05.248Z,37.21
2018-04-08T08:25:05.261Z,36.93
2018-04-08T08:26:05.275Z,36.93
2018-04-08T08:27:05.297Z,36.93
2018-04-08T08:28:05.299Z,36.46
2018-04-08T08:29:05.312Z,37.43
2018-04-08T08:30:05.322Z,36.85
2018-04-08T08:31:05.345Z,37.04
2018-04-08T08:32:05.352Z,36.55
2018-04-08T08:33:05.384Z,37.33
2018-04-08T08:34:05.370Z,37.50
2018-04-08T08:35:05.386Z,38.54
2018-04-08T08:36:05.391Z,40.11
2018-04-08T08:37:05.403Z,38.64
2018-04-08T08:38:05.413Z,39.51
2018-04-08T08:39:05.425Z,41.17
2018-04-08T08:40:05.433Z,40.42
2018-04-08T08:41:05.442Z,39.26
2018-04-08T08:42:05.459Z,38.29
2018-04-08T08:43:05.477Z,38.29
2018-04-08T08:44:05.484Z,38.68
2018-04-08T08:45:05.484Z,38.01
2018-04-08T08:46:05.492Z,38.66
2018-04-08T08:47:05.510Z,38.66
2018-04-08T08:48:05.513Z,39.64
2018-04-08T08:49:05.521Z,38.79
2018-04-08T08:50:05.530Z,38.79
2018-04-08T08:51:05.545Z,37.45
2018-04-08T08:52:05.550Z,37.65
2018-04-08T08:53:05.558Z,37.17
2018-04-08T08:54:05.565Z,36.30
2018-04-08T08:55:05.588Z,36.21
2018-04-08T08:56:05.584Z,36.59
2018-04-08T08:57:05.593Z,37.58
2018-04-08T08:58:05.602Z,36.11
2018-04-08T08:59:05.612Z,35.92
2018-04-08T09:00:05.620Z,36.79
2018-04-08T09:01:05.636Z,36.87
2018-04-08T09:02:05.638Z,37.04
2018-04-08T09:03:05.645Z,37.83
2018-04-08T09:04:05.658Z,37.83
2018-04-08T09:05:05.663Z,36.57
2018-04-08T09:06:05.670Z,36.67
2018-04-08T09:07:05.681Z,36.98
2018-04-08T09:08:05.690Z,37.27
2018-04-08T09:09:05.699Z,36.21
2018-04-08T09:10:05.709Z,36.59
2018-04-08T09:11:05.715Z,35.34
2018-04-08T09:12:05.773Z,35.26
2018-04-08T09:13:05.736Z,34.87
2018-04-08T09:14:05.740Z,34.48
2018-04-08T09:15:05.749Z,33.52
2018-04-08T09:16:05.760Z,33.52
2018-04-08T09:17:05.772Z,35.06
2018-04-08T09:18:05.779Z,34.58
2018-04-08T09:19:05.788Z,35.08
2018-04-08T09:20:05.795Z,33.52
2018-04-08T09:21:05.802Z,34.29
2018-04-08T09:22:05.832Z,34.20
2018-04-08T09:23:05.822Z,34.12
2018-04-08T09:24:05.840Z,33.91
2018-04-08T09:25:05.843Z,32.36
2018-04-08T09:26:05.854Z,32.24
2018-04-08T09:27:05.862Z,32.64
2018-04-08T09:28:05.870Z,33.22
2018-04-08T09:29:05.887Z,31.98
2018-04-08T09:30:05.898Z,31.12
2018-04-08T09:31:05.905Z,30.33
2018-04-08T09:32:05.919Z,30.33
2018-04-08T09:33:05.936Z,30.62
2018-04-08T09:34:05.937Z,29.56
2018-04-08T09:35:05.958Z,29.28
2018-04-08T09:36:05.967Z,29.67
2018-04-08T09:37:05.977Z,29.77
2018-04-08T09:38:05.988Z,30.73
2018-04-08T09:39:06.002Z,29.46
2018-04-08T09:40:06.026Z,29.36
2018-04-08T09:41:06.029Z,29.56
2018-04-08T09:42:06.042Z,30.25
2018-04-08T09:43:06.056Z,30.44
2018-04-08T09:44:06.070Z,30.17
2018-04-08T09:45:06.102Z,29.30
2018-04-08T09:46:06.097Z,29.41
2018-04-08T09:47:06.112Z,29.30
2018-04-08T09:48:06.129Z,29.59
2018-04-08T09:49:06.181Z,29.41
2018-04-08T09:50:06.156Z,29.32
2018-04-08T09:51:06.173Z,29.70
2018-04-08T09:52:06.186Z,28.83
2018-04-08T09:53:06.199Z,29.50
2018-04-08T09:54:06.211Z,30.86
2018-04-08T09:55:06.250Z,30.58
2018-04-08T09:56:06.239Z,30.49
2018-04-08T09:57:06.256Z,30.18
2018-04-08T09:58:06.267Z,31.25
2018-04-08T09:59:06.280Z,30.96
2018-04-08T10:00:06.292Z,31.43
2018-04-08T10:01:06.405Z,32.29
2018-04-08T10:02:06.322Z,32.20
2018-04-08T10:03:06.335Z,32.39
2018-04-08T10:04:06.344Z,32.18
2018-04-08T10:05:06.358Z,32.10
2018-04-08T10:06:06.365Z,33.07
2018-04-08T10:07:06.380Z,31.93
2018-04-08T10:08:06.425Z,32.02
2018-04-08T10:09:06.401Z,30.66
2018-04-08T10:10:06.418Z,30.96
2018-04-08T10:11:06.429Z,31.25
2018-04-08T10:12:06.442Z,30.98
2018-04-08T10:13:06.447Z,31.56
2018-04-08T10:14:06.455Z,30.38
2018-04-08T10:15:06.467Z,31.25
2018-04-08T10:16:06.627Z,31.07
2018-04-08T10:17:06.488Z,30.38
2018-04-08T10:18:06.507Z,29.90
2018-04-08T10:19:06.508Z,31.05
2018-04-08T10:20:06.546Z,31.07
2018-04-08T10:21:06.532Z,30.39
2018-04-08T10:22:06.543Z,29.52
2018-04-08T10:23:06.550Z,28.92
2018-04-08T10:24:06.564Z,29.60
2018-04-08T10:25:06.588Z,29.70
2018-04-08T10:26:06.583Z,30.00
2018-04-08T10:27:06.593Z,30.00
2018-04-08T10:28:06.603Z,30.20
2018-04-08T10:29:06.660Z,29.02
2018-04-08T10:30:06.632Z,29.43
2018-04-08T10:31:06.637Z,28.23
2018-04-08T10:32:06.644Z,29.57
2018-04-08T10:33:06.653Z,29.77
2018-04-08T10:34:06.662Z,30.35
2018-04-08T10:35:06.674Z,30.63
2018-04-08T10:36:06.682Z,29.94
2018-04-08T10:37:06.691Z,29.56
2018-04-08T10:38:06.698Z,30.62
2018-04-08T10:39:06.708Z,30.05
2018-04-08T10:40:06.722Z,31.71
2018-04-08T10:41:06.730Z,31.33
2018-04-08T10:42:06.740Z,29.99
2018-04-08T10:43:06.745Z,30.39
2018-04-08T10:44:06.758Z,30.00
2018-04-08T10:45:07.355Z,30.39
2018-04-08T10:46:06.775Z,31.16
2018-04-08T10:47:06.798Z,31.09
2018-04-08T10:48:06.796Z,30.99
2018-04-08T10:49:06.802Z,30.69
2018-04-08T10:50:06.813Z,29.81
2018-04-08T10:51:06.823Z,30.08
2018-04-08T10:52:06.831Z,30.66
2018-04-08T10:53:06.867Z,30.38
2018-04-08T10:54:06.861Z,29.99
2018-04-08T10:55:06.858Z,30.39
2018-04-08T10:56:06.870Z,29.32
2018-04-08T10:57:06.878Z,29.30
2018-04-08T10:58:06.902Z,30.36
2018-04-08T10:59:06.898Z,31.62
2018-04-08T11:00:06.907Z,30.55
2018-04-08T11:01:06.945Z,30.96
2018-04-08T11:02:06.922Z,32.12
2018-04-08T11:03:06.938Z,31.84
2018-04-08T11:04:06.940Z,30.08
2018-04-08T11:05:06.950Z,30.38
2018-04-08T11:06:06.959Z,30.98
2018-04-08T11:07:06.974Z,30.20
2018-04-08T11:08:06.978Z,30.18
2018-04-08T11:09:07.003Z,30.39
2018-04-08T11:10:06.994Z,32.15
2018-04-08T11:11:07.004Z,30.69
2018-04-08T11:12:07.011Z,30.29
2018-04-08T11:13:07.021Z,31.25
2018-04-08T11:14:07.033Z,32.51
2018-04-08T11:15:07.039Z,31.25
2018-04-08T11:16:07.048Z,32.10
2018-04-08T11:17:07.059Z,32.01
2018-04-08T11:18:07.065Z,32.60
2018-04-08T11:19:07.075Z,32.39
2018-04-08T11:20:07.084Z,32.70
2018-04-08T11:21:07.097Z,32.99
2018-04-08T11:22:07.102Z,31.93
2018-04-08T11:23:07.112Z,31.05
2018-04-08T11:24:07.119Z,31.93
2018-04-08T11:25:07.128Z,30.57
2018-04-08T11:26:07.151Z,31.34
2018-04-08T11:27:07.145Z,30.38
2018-04-08T11:28:07.154Z,30.08
2018-04-08T11:29:07.163Z,31.36
2018-04-08T11:30:07.170Z,31.65
2018-04-08T11:31:07.182Z,31.25
2018-04-08T11:32:07.188Z,31.52
2018-04-08T11:33:07.201Z,32.10
2018-04-08T11:34:07.206Z,31.91
2018-04-08T11:35:07.215Z,32.12
2018-04-08T11:36:07.222Z,32.41
2018-04-08T11:37:07.314Z,31.94
2018-04-08T11:38:07.239Z,32.42
2018-04-08T11:39:07.251Z,31.18
2018-04-08T11:40:07.258Z,29.71
2018-04-08T11:41:07.286Z,29.43
2018-04-08T11:42:07.277Z,29.41
2018-04-08T11:43:07.284Z,29.70
2018-04-08T11:44:07.292Z,29.80
2018-04-08T11:45:07.303Z,29.60
2018-04-08T11:46:07.309Z,29.59
2018-04-08T11:47:07.317Z,30.47
2018-04-08T11:48:07.358Z,29.70
2018-04-08T11:49:07.340Z,30.57
2018-04-08T11:50:07.345Z,30.78
2018-04-08T11:51:07.357Z,30.89
2018-04-08T11:52:07.360Z,30.71
2018-04-08T11:53:07.372Z,30.11
2018-04-08T11:54:07.378Z,29.83
2018-04-08T11:55:07.390Z,29.81
2018-04-08T11:56:07.396Z,29.71
2018-04-08T11:57:07.404Z,30.29
2018-04-08T11:58:07.476Z,29.91
2018-04-08T11:59:07.432Z,29.61
2018-04-08T12:00:07.433Z,29.52
2018-04-08T12:01:07.441Z,30.31
2018-04-08T12:02:07.465Z,29.43
2018-04-08T12:03:07.458Z,29.32
2018-04-08T12:04:07.467Z,30.07
2018-04-08T12:05:07.473Z,31.83
2018-04-08T12:06:07.483Z,31.34
2018-04-08T12:07:07.492Z,31.54
2018-04-08T12:08:07.504Z,30.68
2018-04-08T12:09:07.519Z,30.39
2018-04-08T12:10:07.529Z,29.50
2018-04-08T12:11:07.530Z,29.22
2018-04-08T12:12:07.536Z,29.60
2018-04-08T12:13:07.599Z,29.90
2018-04-08T12:14:07.553Z,30.49
2018-04-08T12:15:07.605Z,29.34
2018-04-08T12:16:07.569Z,28.28
2018-04-08T12:17:07.585Z,28.38
2018-04-08T12:18:07.605Z,28.26
2018-04-08T12:19:07.596Z,28.76
2018-04-08T12:20:07.604Z,28.65
2018-04-08T12:21:07.612Z,29.22
2018-04-08T12:22:07.620Z,29.28
2018-04-08T12:23:07.628Z,29.38
2018-04-08T12:24:07.640Z,30.07
2018-04-08T12:25:07.645Z,30.08
2018-04-08T12:26:07.660Z,29.81
2018-04-08T12:27:07.664Z,30.49
2018-04-08T12:28:07.681Z,29.92
2018-04-08T12:29:07.680Z,28.76
2018-04-08T12:30:07.866Z,28.28
2018-04-08T12:31:07.697Z,28.86
2018-04-08T12:32:07.706Z,28.86
2018-04-08T12:33:07.715Z,28.97
2018-04-08T12:34:07.723Z,28.68
2018-04-08T12:35:07.743Z,26.92
2018-04-08T12:36:07.738Z,27.81
2018-04-08T12:37:07.748Z,27.98
2018-04-08T12:38:07.756Z,28.47
2018-04-08T12:39:07.769Z,28.29
2018-04-08T12:40:07.773Z,27.51
2018-04-08T12:41:07.785Z,28.09
2018-04-08T12:42:07.792Z,27.42
2018-04-08T12:43:07.843Z,27.11
2018-04-08T12:44:07.808Z,28.18
2018-04-08T12:45:07.818Z,28.66
2018-04-08T12:46:07.842Z,28.19
2018-04-08T12:47:07.832Z,27.70
2018-04-08T12:48:07.842Z,28.86
2018-04-08T12:49:07.851Z,28.77
2018-04-08T12:50:07.859Z,28.86
2018-04-08T12:51:07.867Z,29.63
2018-04-08T12:52:07.876Z,28.49